createdAt,value
2018-10-09T00:00:55.028Z,7.75
2018-10-09T00:03:23.459Z,7.25
2018-10-09T00:05:51.932Z,8.53
2018-10-09T00:08:20.308Z,8.85
2018-10-09T00:10:48.905Z,8.58
2018-10-09T00:13:17.430Z,8.83
2018-10-09T00:15:45.852Z,7.58
2018-10-09T00:18:14.237Z,9.78
2018-10-09T00:20:42.704Z,7.83
2018-10-09T00:23:11.037Z,7.72
2018-10-09T00:25:39.724Z,9.40
2018-10-09T00:28:08.114Z,9.43
2018-10-09T00:30:36.501Z,9.15
2018-10-09T00:33:04.871Z,8.65
2018-10-09T00:35:33.254Z,8.55
2018-10-09T00:38:01.831Z,9.03
2018-10-09T00:40:30.446Z,8.68
2018-10-09T00:42:58.844Z,7.80
2018-10-09T00:45:27.172Z,7.33
2018-10-09T00:47:55.621Z,8.65
2018-10-09T00:50:24.005Z,8.50
2018-10-09T00:52:52.399Z,7.62
2018-10-09T00:55:21.839Z,7.90
2018-10-09T00:57:50.209Z,8.45
2018-10-09T01:00:18.604Z,8.80
2018-10-09T01:02:46.996Z,8.25
2018-10-09T01:05:15.437Z,7.95
2018-10-09T01:07:44.044Z,9.25
2018-10-09T01:10:12.426Z,8.58
2018-10-09T01:12:40.821Z,7.95
2018-10-09T01:15:09.602Z,7.45
2018-10-09T01:17:38.025Z,8.53
2018-10-09T01:20:06.643Z,7.92
2018-10-09T01:22:34.991Z,7.05
2018-10-09T01:25:03.779Z,8.23
2018-10-09T01:27:32.195Z,8.20
2018-10-09T01:30:00.788Z,7.37
2018-10-09T01:32:29.090Z,7.10
2018-10-09T01:34:57.395Z,7.80
2018-10-09T01:37:26.055Z,7.55
2018-10-09T01:39:54.439Z,8.60
2018-10-09T01:42:23.100Z,8.25
2018-10-09T01:44:51.455Z,7.45
2018-10-09T01:47:19.787Z,7.80
2018-10-09T01:49:48.211Z,8.08
2018-10-09T01:52:16.751Z,7.30
2018-10-09T01:54:45.123Z,7.37
2018-10-09T01:57:13.611Z,6.83
2018-10-09T01:59:42.488Z,8.80
2018-10-09T02:02:10.820Z,8.18
2018-10-09T02:04:39.164Z,7.80
2018-10-09T02:07:07.670Z,8.38
2018-10-09T02:09:36.112Z,7.60
2018-10-09T02:12:05.516Z,7.92
2018-10-09T02:14:34.003Z,8.08
2018-10-09T02:17:02.581Z,8.35
2018-10-09T02:19:31.051Z,7.50
2018-10-09T02:21:59.565Z,7.40
2018-10-09T02:24:28.025Z,9.20
2018-10-09T02:26:56.488Z,8.35
2018-10-09T02:29:24.979Z,8.68
2018-10-09T02:31:53.389Z,8.95
2018-10-09T02:34:21.827Z,8.43
2018-10-09T02:36:50.236Z,9.60
2018-10-09T02:39:18.686Z,8.65
2018-10-09T02:41:47.066Z,8.25
2018-10-09T02:44:15.464Z,9.58
2018-10-09T02:46:43.926Z,9.20
2018-10-09T02:49:12.302Z,8.25
2018-10-09T02:51:40.692Z,8.45
2018-10-09T02:54:09.210Z,8.75
2018-10-09T02:58:02.270Z,8.05
2018-10-09T03:00:30.707Z,8.50
2018-10-09T03:02:59.060Z,8.88
2018-10-09T03:05:27.477Z,9.33
2018-10-09T03:07:55.824Z,9.08
2018-10-09T03:10:24.659Z,9.15
2018-10-09T03:12:53.112Z,7.83
2018-10-09T03:15:21.500Z,9.05
2018-10-09T03:17:50.432Z,9.23
2018-10-09T03:20:18.888Z,8.68
2018-10-09T03:22:47.931Z,8.50
2018-10-09T03:25:16.352Z,8.28
2018-10-09T03:27:44.751Z,8.18
2018-10-09T03:30:13.307Z,8.50
2018-10-09T03:32:41.668Z,7.62
2018-10-09T03:35:10.059Z,7.90
2018-10-09T03:37:38.440Z,7.37
2018-10-09T03:40:06.932Z,7.33
2018-10-09T03:42:35.300Z,10.40
2018-10-09T03:45:03.829Z,7.60
2018-10-09T03:47:32.284Z,9.43
2018-10-09T03:50:00.668Z,7.47
2018-10-09T03:52:29.107Z,7.22
2018-10-09T03:54:57.531Z,7.08
2018-10-09T03:57:25.973Z,7.60
2018-10-09T03:59:54.348Z,6.60
2018-10-09T04:02:23.579Z,7.97
2018-10-09T04:04:51.931Z,7.15
2018-10-09T04:07:20.312Z,9.30
2018-10-09T04:09:48.706Z,8.68
2018-10-09T04:12:17.068Z,7.92
2018-10-09T04:14:45.479Z,7.22
2018-10-09T04:17:13.952Z,7.30
2018-10-09T04:19:42.304Z,7.70
2018-10-09T04:22:15.644Z,7.25
2018-10-09T04:24:44.105Z,8.35
2018-10-09T04:27:12.488Z,7.58
2018-10-09T04:29:40.868Z,8.00
2018-10-09T04:32:09.237Z,7.47
2018-10-09T04:34:37.623Z,9.55
2018-10-09T04:37:06.268Z,9.70
2018-10-09T04:39:34.676Z,9.53
2018-10-09T04:42:03.054Z,9.95
2018-10-09T04:44:31.468Z,9.68
2018-10-09T04:46:59.920Z,9.90
2018-10-09T04:49:28.297Z,8.95
2018-10-09T04:51:56.703Z,10.23
2018-10-09T04:54:25.244Z,10.68
2018-10-09T04:56:53.803Z,11.55
2018-10-09T04:59:22.236Z,10.25
2018-10-09T05:01:50.628Z,11.15
2018-10-09T05:04:19.229Z,11.95
2018-10-09T05:06:47.677Z,12.47
2018-10-09T05:09:16.060Z,10.93
2018-10-09T05:11:44.536Z,13.58
2018-10-09T05:14:12.940Z,45.08
2018-10-09T05:16:41.380Z,14.13
2018-10-09T05:19:11.513Z,19.67
2018-10-09T05:21:40.923Z,13.45
2018-10-09T05:24:09.715Z,10.38
2018-10-09T05:26:38.936Z,10.63
2018-10-09T05:29:07.943Z,10.40
2018-10-09T05:31:36.439Z,10.80
2018-10-09T05:34:05.593Z,10.80
2018-10-09T05:36:34.136Z,11.05
2018-10-09T05:39:02.550Z,27.77
2018-10-09T05:41:31.008Z,17.62
2018-10-09T05:43:59.418Z,12.63
2018-10-09T05:46:27.872Z,12.20
2018-10-09T05:48:56.675Z,12.35
2018-10-09T05:51:25.360Z,13.18
2018-10-09T05:53:53.704Z,14.43
2018-10-09T05:56:22.134Z,13.22
2018-10-09T05:58:50.652Z,13.65
2018-10-09T06:01:19.068Z,14.45
2018-10-09T06:03:47.429Z,14.25
2018-10-09T06:06:15.852Z,14.45
2018-10-09T06:08:44.610Z,14.40
2018-10-09T06:11:13.093Z,14.28
2018-10-09T06:13:41.603Z,13.90
2018-10-09T06:16:10.390Z,15.30
2018-10-09T06:30:57.768Z,16.10
2018-10-09T06:33:26.136Z,17.60
2018-10-09T06:35:54.624Z,15.75
2018-10-09T06:38:23.134Z,17.07
2018-10-09T06:40:51.488Z,17.63
2018-10-09T06:43:19.904Z,16.90
2018-10-09T06:45:48.298Z,17.07
2018-10-09T06:48:16.775Z,15.75
2018-10-09T06:50:45.244Z,18.77
2018-10-09T06:53:13.709Z,17.50
2018-10-09T06:55:42.105Z,16.80
2018-10-09T06:58:10.584Z,14.60
2018-10-09T07:00:39.052Z,18.32
2018-10-09T07:03:07.448Z,15.78
2018-10-09T07:05:35.909Z,15.35
2018-10-09T07:08:04.322Z,14.33
2018-10-09T07:10:32.809Z,15.40
2018-10-09T07:13:02.489Z,13.95
2018-10-09T07:15:30.973Z,15.58
2018-10-09T07:17:59.465Z,13.95
2018-10-09T07:20:27.941Z,14.47
2018-10-09T07:22:56.412Z,14.70
2018-10-09T07:25:24.928Z,13.60
2018-10-09T07:27:53.807Z,13.60
2018-10-09T07:30:22.147Z,14.33
2018-10-09T07:32:50.525Z,16.20
2018-10-09T07:35:18.912Z,14.57
2018-10-09T07:37:47.286Z,16.70
2018-10-09T07:40:15.661Z,15.37
2018-10-09T07:42:44.068Z,16.30
2018-10-09T07:45:12.522Z,16.23
2018-10-09T07:47:40.897Z,16.00
2018-10-09T07:50:09.305Z,15.70
2018-10-09T07:52:38.181Z,16.43
2018-10-09T07:55:06.613Z,15.20
2018-10-09T07:57:35.033Z,14.50
2018-10-09T08:00:03.716Z,15.63
2018-10-09T08:02:32.119Z,15.23
2018-10-09T08:05:00.497Z,16.87
2018-10-09T08:07:28.872Z,15.00
2018-10-09T08:09:57.344Z,15.20
2018-10-09T08:12:25.728Z,14.23
2018-10-09T08:14:54.238Z,15.00
2018-10-09T08:17:22.675Z,15.20
2018-10-09T08:19:51.084Z,17.17
2018-10-09T08:22:19.593Z,15.93
2018-10-09T08:24:48.336Z,15.57
2018-10-09T08:27:16.710Z,14.80
2018-10-09T08:29:45.093Z,15.33
2018-10-09T08:32:13.496Z,16.50
2018-10-09T08:34:41.974Z,14.77
2018-10-09T08:37:10.332Z,14.80
2018-10-09T08:39:38.729Z,13.30
2018-10-09T08:42:07.208Z,14.80
2018-10-09T08:44:35.749Z,13.57
2018-10-09T08:47:04.364Z,13.60
2018-10-09T08:49:34.276Z,15.60
2018-10-09T08:52:03.291Z,14.60
2018-10-09T08:54:31.828Z,16.20
2018-10-09T08:57:00.540Z,15.40
2018-10-09T08:59:29.102Z,16.70
2018-10-09T09:01:58.652Z,16.47
2018-10-09T09:04:27.557Z,16.60
2018-10-09T09:06:59.166Z,16.77
2018-10-09T09:09:46.657Z,14.93
2018-10-09T09:12:15.550Z,15.60
2018-10-09T09:14:46.814Z,16.60
2018-10-09T09:17:20.794Z,16.30
2018-10-09T09:19:50.344Z,17.50
2018-10-09T09:22:19.088Z,17.70
2018-10-09T09:24:51.627Z,16.60
2018-10-09T09:27:21.311Z,17.50
2018-10-09T09:29:50.032Z,21.10
2018-10-09T09:32:18.663Z,19.27
2018-10-09T09:34:47.393Z,16.93
2018-10-09T09:37:16.452Z,18.30
2018-10-09T09:39:45.155Z,17.90
2018-10-09T09:42:13.929Z,15.87
2018-10-09T09:44:42.759Z,16.73
2018-10-09T09:47:11.853Z,16.00
2018-10-09T09:49:41.043Z,17.70
2018-10-09T09:52:09.846Z,17.30
2018-10-09T09:54:42.397Z,14.50
2018-10-09T09:57:13.883Z,17.07
2018-10-09T09:59:46.696Z,16.60
2018-10-09T10:02:15.344Z,20.30
2018-10-09T10:04:44.390Z,18.90
2018-10-09T10:07:13.100Z,20.40
2018-10-09T10:09:41.778Z,20.10
2018-10-09T10:12:10.770Z,12.10
2018-10-09T10:14:39.592Z,15.17
2018-10-09T10:17:08.117Z,15.03
2018-10-09T10:19:36.593Z,14.40
2018-10-09T10:22:08.617Z,16.10
2018-10-09T10:24:41.152Z,14.03
2018-10-09T10:29:46.153Z,14.50
2018-10-09T10:32:14.764Z,15.10
2018-10-09T10:34:43.188Z,16.03
2018-10-09T10:37:11.631Z,16.13
2018-10-09T10:39:40.125Z,16.07
2018-10-09T10:42:08.667Z,16.13
2018-10-09T10:44:37.148Z,15.70
2018-10-09T10:47:05.853Z,16.80
2018-10-09T10:49:34.336Z,14.93
2018-10-09T10:52:03.226Z,15.97
2018-10-09T10:54:31.794Z,13.27
2018-10-09T10:57:00.253Z,12.20
2018-10-09T10:59:28.792Z,14.53
2018-10-09T11:01:57.533Z,13.63
2018-10-09T11:04:25.995Z,18.73
2018-10-09T11:06:54.476Z,16.00
2018-10-09T11:09:23.084Z,16.10
2018-10-09T11:11:51.633Z,13.70
2018-10-09T11:14:20.168Z,14.00
2018-10-09T11:16:48.612Z,14.53
2018-10-09T11:19:16.992Z,13.40
2018-10-09T11:21:45.491Z,13.73
2018-10-09T11:24:13.836Z,12.57
2018-10-09T11:26:42.221Z,11.80
2018-10-09T11:29:11.061Z,11.63
2018-10-09T11:31:39.541Z,11.13
2018-10-09T11:34:08.348Z,9.70
2018-10-09T11:36:37.176Z,14.20
2018-10-09T11:39:07.322Z,12.57
2018-10-09T11:41:35.783Z,10.80
2018-10-09T11:44:04.420Z,9.63
2018-10-09T11:46:33.856Z,9.60
2018-10-09T11:49:02.492Z,9.23
2018-10-09T11:51:30.940Z,9.73
2018-10-09T11:53:59.421Z,9.60
2018-10-09T11:56:27.788Z,9.43
2018-10-09T11:58:57.290Z,9.97
2018-10-09T12:01:25.681Z,9.10
2018-10-09T12:03:54.044Z,8.63
2018-10-09T12:06:22.404Z,8.57
2018-10-09T12:08:50.924Z,7.73
2018-10-09T12:11:19.440Z,8.40
2018-10-09T12:13:48.308Z,8.10
2018-10-09T12:16:17.095Z,9.90
2018-10-09T12:18:45.471Z,9.00
2018-10-09T12:21:14.010Z,6.47
2018-10-09T12:23:42.516Z,7.23
2018-10-09T12:26:10.892Z,8.20
2018-10-09T12:28:39.321Z,8.73
2018-10-09T12:31:07.985Z,8.00
2018-10-09T12:33:36.453Z,7.80
2018-10-09T12:36:05.116Z,7.03
2018-10-09T12:38:33.630Z,7.30
2018-10-09T12:41:01.989Z,7.10
2018-10-09T12:43:30.387Z,7.37
2018-10-09T12:45:58.806Z,6.90
2018-10-09T12:48:27.243Z,7.93
2018-10-09T12:52:25.056Z,6.53
2018-10-09T12:54:53.423Z,7.90
2018-10-09T12:57:21.875Z,7.10
2018-10-09T12:59:50.252Z,7.40
2018-10-09T13:02:18.632Z,7.50
2018-10-09T13:04:47.080Z,6.50
2018-10-09T13:07:15.523Z,6.30
2018-10-09T13:09:44.523Z,6.50
2018-10-09T13:12:13.035Z,6.30
2018-10-09T13:14:41.460Z,6.60
2018-10-09T13:17:09.860Z,6.23
2018-10-09T13:19:38.220Z,6.33
2018-10-09T13:22:06.983Z,8.00
2018-10-09T13:24:35.180Z,6.47
2018-10-09T13:27:03.653Z,7.10
2018-10-09T13:29:31.963Z,6.97
2018-10-09T13:32:00.407Z,6.70
2018-10-09T13:34:28.936Z,8.60
2018-10-09T13:36:57.344Z,7.63
2018-10-09T13:39:25.768Z,5.53
2018-10-09T13:41:54.252Z,6.67
2018-10-09T13:44:22.964Z,7.03
2018-10-09T13:46:51.411Z,6.60
2018-10-09T13:49:19.874Z,7.27
2018-10-09T13:54:16.041Z,6.00
2018-10-09T13:56:44.612Z,6.20
2018-10-09T13:59:13.004Z,5.90
2018-10-09T14:01:41.792Z,5.03
2018-10-09T14:04:10.244Z,5.63
2018-10-09T14:06:38.599Z,6.20
2018-10-09T14:09:08.430Z,7.07
2018-10-09T14:11:37.028Z,6.60
2018-10-09T14:14:05.410Z,6.60
2018-10-09T14:16:33.800Z,5.33
2018-10-09T14:19:02.660Z,5.63
2018-10-09T14:21:31.057Z,5.60
2018-10-09T14:23:59.449Z,5.27
2018-10-09T14:26:27.954Z,5.07
2018-10-09T14:28:56.403Z,4.57
2018-10-09T14:31:25.105Z,5.17
2018-10-09T14:33:53.557Z,5.17
2018-10-09T14:36:22.012Z,3.77
2018-10-09T14:38:50.433Z,3.60
2018-10-09T14:41:18.807Z,3.97
2018-10-09T14:43:47.212Z,3.73
2018-10-09T14:46:15.673Z,3.70
2018-10-09T14:48:44.053Z,3.73
2018-10-09T14:51:12.480Z,4.00
2018-10-09T14:53:40.900Z,4.20
2018-10-09T14:56:09.296Z,4.10
2018-10-09T14:58:37.768Z,4.27
2018-10-09T15:01:06.476Z,4.20
2018-10-09T15:03:34.905Z,4.50
2018-10-09T15:06:03.354Z,3.87
2018-10-09T15:08:31.797Z,4.10
2018-10-09T15:11:00.172Z,4.43
2018-10-09T15:13:28.572Z,4.27
2018-10-09T15:15:57.025Z,5.60
2018-10-09T15:18:25.452Z,5.37
2018-10-09T15:20:53.888Z,4.50
2018-10-09T15:23:22.253Z,3.97
2018-10-09T15:25:50.672Z,4.80
2018-10-09T15:28:19.125Z,3.97
2018-10-09T15:30:47.883Z,4.67
2018-10-09T15:33:22.948Z,4.83
2018-10-09T15:35:52.589Z,4.47
2018-10-09T15:38:21.960Z,5.70
2018-10-09T15:40:50.600Z,4.70
2018-10-09T15:43:19.024Z,4.73
2018-10-09T15:45:47.424Z,4.13
2018-10-09T15:48:15.882Z,6.30
2018-10-09T15:50:44.274Z,5.00
2018-10-09T15:53:12.672Z,5.20
2018-10-09T15:55:41.548Z,4.47
2018-10-09T15:58:09.949Z,4.40
2018-10-09T16:00:39.089Z,5.03
2018-10-09T16:03:08.237Z,4.30
2018-10-09T16:05:36.808Z,4.90
2018-10-09T16:08:05.244Z,4.80
2018-10-09T16:10:33.728Z,5.03
2018-10-09T16:13:02.365Z,6.47
2018-10-09T16:15:30.856Z,4.90
2018-10-09T16:17:59.603Z,4.90
2018-10-09T16:20:28.354Z,4.70
2018-10-09T16:22:59.076Z,4.53
2018-10-09T16:25:29.864Z,5.10
2018-10-09T16:28:00.437Z,4.10
2018-10-09T16:30:29.370Z,5.60
2018-10-09T16:32:57.894Z,4.83
2018-10-09T16:35:30.130Z,6.30
2018-10-09T16:37:58.920Z,4.87
2018-10-09T16:40:27.828Z,5.20
2018-10-09T16:42:56.884Z,5.53
2018-10-09T16:45:26.045Z,6.50
2018-10-09T16:47:54.903Z,6.27
2018-10-09T16:50:27.342Z,5.50
2018-10-09T16:52:57.055Z,5.67
2018-10-09T16:55:26.111Z,5.60
2018-10-09T16:57:55.589Z,5.03
2018-10-09T17:00:24.360Z,5.67
2018-10-09T17:02:52.752Z,6.13
2018-10-09T17:05:22.492Z,6.63
2018-10-09T17:07:50.991Z,5.93
2018-10-09T17:10:22.980Z,5.80
2018-10-09T17:12:54.664Z,5.80
2018-10-09T17:15:24.145Z,6.90
2018-10-09T17:17:52.921Z,6.17
2018-10-09T17:20:22.104Z,6.57
2018-10-09T17:22:50.921Z,6.73
2018-10-09T17:25:20.072Z,6.17
2018-10-09T17:27:48.675Z,6.27
2018-10-09T17:30:18.159Z,6.10
2018-10-09T17:32:46.768Z,7.03
2018-10-09T17:35:16.285Z,6.50
2018-10-09T17:37:44.669Z,6.93
2018-10-09T17:40:13.093Z,6.27
2018-10-09T17:42:41.460Z,6.43
2018-10-09T17:45:09.889Z,6.63
2018-10-09T17:47:38.464Z,5.80
2018-10-09T17:50:07.465Z,6.87
2018-10-09T17:52:35.933Z,6.93
2018-10-09T17:55:04.600Z,7.60
2018-10-09T17:57:33.100Z,7.07
2018-10-09T18:00:02.125Z,7.20
2018-10-09T18:02:30.542Z,7.00
2018-10-09T18:05:00.004Z,8.30
2018-10-09T18:07:28.441Z,9.20
2018-10-09T18:09:56.780Z,9.13
2018-10-09T18:12:25.270Z,9.00
2018-10-09T18:14:53.708Z,8.50
2018-10-09T18:17:22.172Z,9.60
2018-10-09T18:19:51.849Z,9.83
2018-10-09T18:22:22.457Z,8.87
2018-10-09T18:24:51.069Z,8.80
2018-10-09T18:27:19.500Z,10.20
2018-10-09T18:29:47.957Z,10.07
2018-10-09T18:32:17.691Z,9.33
2018-10-09T18:34:46.168Z,10.20
2018-10-09T18:37:14.627Z,11.40
2018-10-09T18:39:43.496Z,11.73
2018-10-09T18:42:12.001Z,9.87
2018-10-09T18:44:40.492Z,10.40
2018-10-09T18:47:16.260Z,11.30
2018-10-09T18:49:45.527Z,10.80
2018-10-09T18:52:13.991Z,10.83
2018-10-09T18:54:42.422Z,11.30
2018-10-09T18:57:10.902Z,10.00
2018-10-09T18:59:39.369Z,11.40
2018-10-09T19:02:08.152Z,12.53
2018-10-09T19:04:36.671Z,11.40
2018-10-09T19:07:05.204Z,11.40
2018-10-09T19:09:33.612Z,10.57
2018-10-09T19:12:02.076Z,10.90
2018-10-09T19:14:30.557Z,11.47
2018-10-09T19:16:59.042Z,11.93
2018-10-09T19:19:27.733Z,11.83
2018-10-09T19:21:56.871Z,10.60
2018-10-09T19:24:25.327Z,11.47
2018-10-09T19:26:53.900Z,11.00
2018-10-09T19:29:28.145Z,10.60
2018-10-09T19:32:04.848Z,9.93
2018-10-09T19:34:33.645Z,10.60
2018-10-09T19:37:02.370Z,10.67
2018-10-09T19:39:30.901Z,10.40
2018-10-09T19:42:00.343Z,11.00
2018-10-09T19:44:28.807Z,10.73
2018-10-09T19:46:57.177Z,11.10
2018-10-09T19:49:25.565Z,10.67
2018-10-09T19:51:53.980Z,11.77
2018-10-09T19:54:22.417Z,10.83
2018-10-09T19:56:50.812Z,10.70
2018-10-09T19:59:19.255Z,10.70
2018-10-09T20:01:48.676Z,10.37
2018-10-09T20:04:17.068Z,10.30
2018-10-09T20:06:45.488Z,11.17
2018-10-09T20:09:14.548Z,11.30
2018-10-09T20:11:43.136Z,11.23
2018-10-09T20:14:13.187Z,10.77
2018-10-09T20:16:41.828Z,11.13
2018-10-09T20:19:11.233Z,11.40
2018-10-09T20:21:39.750Z,11.50
2018-10-09T20:24:08.296Z,12.17
2018-10-09T20:26:36.896Z,10.60
2018-10-09T20:29:05.585Z,11.60
2018-10-09T20:31:34.089Z,11.90
2018-10-09T20:34:02.512Z,11.13
2018-10-09T20:36:30.905Z,10.70
2018-10-09T20:39:00.925Z,12.00
2018-10-09T20:41:29.286Z,11.70
2018-10-09T20:43:57.719Z,11.60
2018-10-09T20:46:26.158Z,12.17
2018-10-09T20:48:54.624Z,14.43
2018-10-09T20:51:24.086Z,15.23
2018-10-09T20:53:52.429Z,13.70
2018-10-09T20:56:20.812Z,14.20
2018-10-09T20:58:49.466Z,15.43
2018-10-09T21:01:17.900Z,15.93
2018-10-09T21:03:46.402Z,14.30
2018-10-09T21:06:15.206Z,17.03
2018-10-09T21:08:43.925Z,17.57
2018-10-09T21:11:12.355Z,15.30
2018-10-09T21:13:43.845Z,15.50
2018-10-09T21:16:12.268Z,15.27
2018-10-09T21:18:41.188Z,15.37
2018-10-09T21:21:15.452Z,14.57
2018-10-09T21:23:46.472Z,14.83
2018-10-09T21:26:14.893Z,14.83
2018-10-09T21:28:46.032Z,14.53
2018-10-09T21:31:14.681Z,17.80
2018-10-09T21:33:43.076Z,17.73
2018-10-09T21:36:11.473Z,18.70
2018-10-09T21:38:39.977Z,18.17
2018-10-09T21:41:08.485Z,17.87
2018-10-09T21:43:36.932Z,19.43
2018-10-09T21:46:05.532Z,19.70
2018-10-09T21:48:33.976Z,20.50
2018-10-09T21:51:02.392Z,22.27
2018-10-09T21:53:31.148Z,21.90
2018-10-09T21:55:59.525Z,21.80
2018-10-09T21:58:27.916Z,24.40
2018-10-09T22:01:03.632Z,23.40
2018-10-09T22:03:32.044Z,23.30
2018-10-09T22:06:00.512Z,21.70
2018-10-09T22:08:28.892Z,22.00
2018-10-09T22:10:57.469Z,22.50
2018-10-09T22:13:25.857Z,25.53
2018-10-09T22:15:54.266Z,23.07
2018-10-09T22:18:22.692Z,22.67
2018-10-09T22:20:52.524Z,24.17
2018-10-09T22:23:23.911Z,24.67
2018-10-09T22:25:52.380Z,25.07
2018-10-09T22:28:20.824Z,27.60
2018-10-09T22:30:49.248Z,24.57
2018-10-09T22:33:17.684Z,27.50
2018-10-09T22:35:46.121Z,27.03
2018-10-09T22:38:14.572Z,26.00
2018-10-09T22:40:43.032Z,29.27
2018-10-09T22:43:11.415Z,26.17
2018-10-09T22:45:40.473Z,27.70
2018-10-09T22:48:09.564Z,29.33
2018-10-09T22:50:38.032Z,28.77
2018-10-09T22:53:06.492Z,28.07
2018-10-09T22:55:34.944Z,31.83
2018-10-09T22:58:03.320Z,31.10
2018-10-09T23:00:33.337Z,30.17
2018-10-09T23:03:02.264Z,32.40
2018-10-09T23:05:31.804Z,29.70
2018-10-09T23:08:00.261Z,29.70
2018-10-09T23:10:29.256Z,32.10
2018-10-09T23:12:59.201Z,30.67
2018-10-09T23:15:28.809Z,29.37
2018-10-09T23:17:57.228Z,30.60
2018-10-09T23:20:25.617Z,30.30
2018-10-09T23:22:54.101Z,28.90
2018-10-09T23:25:25.161Z,30.90
2018-10-09T23:27:56.180Z,31.93
2018-10-09T23:30:24.632Z,30.20
2018-10-09T23:32:54.408Z,33.30
2018-10-09T23:35:23.897Z,30.17
2018-10-09T23:37:53.356Z,32.33
2018-10-09T23:40:21.695Z,30.50
2018-10-09T23:42:51.811Z,31.77
2018-10-09T23:45:22.123Z,35.07
2018-10-09T23:47:54.894Z,32.97
2018-10-09T23:50:24.258Z,32.47
2018-10-09T23:52:53.054Z,35.63
2018-10-09T23:55:21.432Z,31.10
2018-10-09T23:57:50.871Z,32.60
